sensor_id;sensor_type;location;lat;lon;timestamp;temperature;humidity
24326;DHT22;12448;45.532;5.290;2023-03-01T00:01:27;2.00;86.90
24326;DHT22;12448;45.532;5.290;2023-03-01T00:03:53;2.00;86.60
24326;DHT22;12448;45.532;5.290;2023-03-01T00:06:20;1.90;86.50
24326;DHT22;12448;45.532;5.290;2023-03-01T00:08:46;1.80;86.40
24326;DHT22;12448;45.532;5.290;2023-03-01T00:11:19;1.80;86.40
24326;DHT22;12448;45.532;5.290;2023-03-01T00:13:46;1.80;86.60
24326;DHT22;12448;45.532;5.290;2023-03-01T00:16:17;2.10;86.80
24326;DHT22;12448;45.532;5.290;2023-03-01T00:18:43;1.70;86.70
24326;DHT22;12448;45.532;5.290;2023-03-01T00:21:09;1.80;86.90
24326;DHT22;12448;45.532;5.290;2023-03-01T00:23:36;1.70;87.10
24326;DHT22;12448;45.532;5.290;2023-03-01T00:26:06;1.70;87.00
24326;DHT22;12448;45.532;5.290;2023-03-01T00:28:32;1.70;87.10
24326;DHT22;12448;45.532;5.290;2023-03-01T00:31:04;1.60;87.00
24326;DHT22;12448;45.532;5.290;2023-03-01T00:33:30;1.60;87.00
24326;DHT22;12448;45.532;5.290;2023-03-01T00:35:58;1.60;87.00
24326;DHT22;12448;45.532;5.290;2023-03-01T00:38:24;1.60;87.20
24326;DHT22;12448;45.532;5.290;2023-03-01T00:40:49;1.60;87.30
24326;DHT22;12448;45.532;5.290;2023-03-01T00:43:15;1.60;87.20
24326;DHT22;12448;45.532;5.290;2023-03-01T00:45:40;1.60;87.10
24326;DHT22;12448;45.532;5.290;2023-03-01T00:48:06;1.70;87.10
24326;DHT22;12448;45.532;5.290;2023-03-01T00:50:32;1.60;87.10
24326;DHT22;12448;45.532;5.290;2023-03-01T00:52:57;1.60;86.90
24326;DHT22;12448;45.532;5.290;2023-03-01T00:55:24;1.60;87.00
24326;DHT22;12448;45.532;5.290;2023-03-01T00:57:50;1.70;87.10
24326;DHT22;12448;45.532;5.290;2023-03-01T01:00:17;1.70;87.00
24326;DHT22;12448;45.532;5.290;2023-03-01T01:02:42;1.60;87.60
24326;DHT22;12448;45.532;5.290;2023-03-01T01:05:08;1.70;86.90
24326;DHT22;12448;45.532;5.290;2023-03-01T01:07:34;1.60;86.60
24326;DHT22;12448;45.532;5.290;2023-03-01T01:10:00;1.60;86.90
24326;DHT22;12448;45.532;5.290;2023-03-01T01:12:25;1.60;86.90
24326;DHT22;12448;45.532;5.290;2023-03-01T01:14:51;1.60;86.90
24326;DHT22;12448;45.532;5.290;2023-03-01T01:17:17;1.50;87.00
24326;DHT22;12448;45.532;5.290;2023-03-01T01:19:42;1.40;87.00
24326;DHT22;12448;45.532;5.290;2023-03-01T01:22:08;1.30;87.40
24326;DHT22;12448;45.532;5.290;2023-03-01T01:24:35;1.30;87.60
24326;DHT22;12448;45.532;5.290;2023-03-01T01:27:00;1.30;87.40
24326;DHT22;12448;45.532;5.290;2023-03-01T01:29:26;1.40;87.40
24326;DHT22;12448;45.532;5.290;2023-03-01T01:31:52;1.40;87.30
24326;DHT22;12448;45.532;5.290;2023-03-01T01:34:20;1.40;87.20
24326;DHT22;12448;45.532;5.290;2023-03-01T01:36:52;1.30;87.30
24326;DHT22;12448;45.532;5.290;2023-03-01T01:39:22;1.40;87.40
24326;DHT22;12448;45.532;5.290;2023-03-01T01:41:48;1.40;87.50
24326;DHT22;12448;45.532;5.290;2023-03-01T01:44:24;1.30;87.20
24326;DHT22;12448;45.532;5.290;2023-03-01T01:46:54;1.30;87.30
24326;DHT22;12448;45.532;5.290;2023-03-01T01:49:29;1.30;87.40
24326;DHT22;12448;45.532;5.290;2023-03-01T01:52:09;1.20;87.60
24326;DHT22;12448;45.532;5.290;2023-03-01T01:54:41;1.10;87.60
24326;DHT22;12448;45.532;5.290;2023-03-01T01:57:12;1.20;87.90
24326;DHT22;12448;45.532;5.290;2023-03-01T01:59:39;1.10;87.80
24326;DHT22;12448;45.532;5.290;2023-03-01T02:02:08;1.20;87.80
24326;DHT22;12448;45.532;5.290;2023-03-01T02:04:33;1.20;87.90
24326;DHT22;12448;45.532;5.290;2023-03-01T02:07:06;1.20;87.80
24326;DHT22;12448;45.532;5.290;2023-03-01T02:09:33;1.20;87.70
24326;DHT22;12448;45.532;5.290;2023-03-01T02:12:00;1.60;87.70
24326;DHT22;12448;45.532;5.290;2023-03-01T02:14:26;1.30;87.40
24326;DHT22;12448;45.532;5.290;2023-03-01T02:16:52;1.30;87.10
24326;DHT22;12448;45.532;5.290;2023-03-01T02:22:19;1.10;87.20
24326;DHT22;12448;45.532;5.290;2023-03-01T02:30:21;1.10;87.50
24326;DHT22;12448;45.532;5.290;2023-03-01T02:32:47;1.50;88.50
24326;DHT22;12448;45.532;5.290;2023-03-01T02:35:15;1.20;87.60
24326;DHT22;12448;45.532;5.290;2023-03-01T02:37:43;1.30;87.60
24326;DHT22;12448;45.532;5.290;2023-03-01T02:40:17;1.30;87.30
24326;DHT22;12448;45.532;5.290;2023-03-01T02:42:53;1.30;86.90
24326;DHT22;12448;45.532;5.290;2023-03-01T02:45:20;1.20;87.00
24326;DHT22;12448;45.532;5.290;2023-03-01T02:47:45;1.30;87.30
24326;DHT22;12448;45.532;5.290;2023-03-01T02:50:40;1.30;87.10
24326;DHT22;12448;45.532;5.290;2023-03-01T02:53:16;1.30;87.00
24326;DHT22;12448;45.532;5.290;2023-03-01T02:55:45;1.30;87.10
24326;DHT22;12448;45.532;5.290;2023-03-01T02:58:11;1.30;87.00
24326;DHT22;12448;45.532;5.290;2023-03-01T03:00:39;1.50;87.10
24326;DHT22;12448;45.532;5.290;2023-03-01T03:03:16;1.30;86.70
24326;DHT22;12448;45.532;5.290;2023-03-01T03:05:43;1.30;86.80
24326;DHT22;12448;45.532;5.290;2023-03-01T03:08:09;1.60;87.10
24326;DHT22;12448;45.532;5.290;2023-03-01T03:10:39;1.20;86.60
24326;DHT22;12448;45.532;5.290;2023-03-01T03:13:08;1.10;87.60
24326;DHT22;12448;45.532;5.290;2023-03-01T03:15:35;1.10;86.90
24326;DHT22;12448;45.532;5.290;2023-03-01T03:18:08;1.10;87.10
24326;DHT22;12448;45.532;5.290;2023-03-01T03:20:34;1.00;87.10
24326;DHT22;12448;45.532;5.290;2023-03-01T03:23:00;1.00;87.40
24326;DHT22;12448;45.532;5.290;2023-03-01T03:25:27;1.10;87.70
24326;DHT22;12448;45.532;5.290;2023-03-01T03:27:53;1.10;87.40
24326;DHT22;12448;45.532;5.290;2023-03-01T03:30:24;1.30;87.30
24326;DHT22;12448;45.532;5.290;2023-03-01T03:32:50;1.10;87.00
24326;DHT22;12448;45.532;5.290;2023-03-01T03:35:20;1.10;87.10
24326;DHT22;12448;45.532;5.290;2023-03-01T03:37:45;1.00;87.00
24326;DHT22;12448;45.532;5.290;2023-03-01T03:40:38;1.10;87.30
24326;DHT22;12448;45.532;5.290;2023-03-01T03:43:05;1.10;88.00
24326;DHT22;12448;45.532;5.290;2023-03-01T03:45:31;1.10;87.10
24326;DHT22;12448;45.532;5.290;2023-03-01T03:47:59;1.00;87.30
24326;DHT22;12448;45.532;5.290;2023-03-01T03:50:25;0.90;87.30
24326;DHT22;12448;45.532;5.290;2023-03-01T03:52:51;0.90;87.50
24326;DHT22;12448;45.532;5.290;2023-03-01T03:55:16;0.90;87.40
24326;DHT22;12448;45.532;5.290;2023-03-01T03:57:45;0.90;87.50
24326;DHT22;12448;45.532;5.290;2023-03-01T04:00:18;1.00;87.70
24326;DHT22;12448;45.532;5.290;2023-03-01T04:02:44;1.00;87.70
24326;DHT22;12448;45.532;5.290;2023-03-01T04:05:12;1.00;87.50
24326;DHT22;12448;45.532;5.290;2023-03-01T04:07:38;1.00;87.50
24326;DHT22;12448;45.532;5.290;2023-03-01T04:10:06;1.00;87.60
24326;DHT22;12448;45.532;5.290;2023-03-01T04:12:33;1.10;87.70
24326;DHT22;12448;45.532;5.290;2023-03-01T04:15:03;1.50;87.50
24326;DHT22;12448;45.532;5.290;2023-03-01T04:17:43;1.00;87.10
24326;DHT22;12448;45.532;5.290;2023-03-01T04:20:12;1.00;87.30
24326;DHT22;12448;45.532;5.290;2023-03-01T04:22:38;0.90;87.40
24326;DHT22;12448;45.532;5.290;2023-03-01T04:25:04;0.90;87.50
24326;DHT22;12448;45.532;5.290;2023-03-01T04:27:33;0.80;87.60
24326;DHT22;12448;45.532;5.290;2023-03-01T04:29:59;0.80;87.60
24326;DHT22;12448;45.532;5.290;2023-03-01T04:32:24;0.80;87.80
24326;DHT22;12448;45.532;5.290;2023-03-01T04:34:50;0.80;88.00
24326;DHT22;12448;45.532;5.290;2023-03-01T04:37:15;0.70;88.10
24326;DHT22;12448;45.532;5.290;2023-03-01T04:39:41;0.70;88.30
24326;DHT22;12448;45.532;5.290;2023-03-01T04:42:19;0.80;88.50
24326;DHT22;12448;45.532;5.290;2023-03-01T04:44:46;0.80;88.60
24326;DHT22;12448;45.532;5.290;2023-03-01T04:47:11;0.80;88.20
24326;DHT22;12448;45.532;5.290;2023-03-01T04:49:37;0.80;88.20
24326;DHT22;12448;45.532;5.290;2023-03-01T04:52:04;0.80;88.00
24326;DHT22;12448;45.532;5.290;2023-03-01T04:54:30;0.80;88.10
24326;DHT22;12448;45.532;5.290;2023-03-01T04:56:57;0.80;88.20
24326;DHT22;12448;45.532;5.290;2023-03-01T04:59:23;0.80;88.20
24326;DHT22;12448;45.532;5.290;2023-03-01T05:01:53;1.00;88.10
24326;DHT22;12448;45.532;5.290;2023-03-01T05:04:22;0.80;87.80
24326;DHT22;12448;45.532;5.290;2023-03-01T05:06:48;0.80;87.70
24326;DHT22;12448;45.532;5.290;2023-03-01T05:09:14;0.80;87.70
24326;DHT22;12448;45.532;5.290;2023-03-01T05:11:40;0.80;87.80
24326;DHT22;12448;45.532;5.290;2023-03-01T05:14:06;0.80;87.70
24326;DHT22;12448;45.532;5.290;2023-03-01T05:16:32;0.90;87.80
24326;DHT22;12448;45.532;5.290;2023-03-01T05:18:58;0.80;87.50
24326;DHT22;12448;45.532;5.290;2023-03-01T05:21:25;0.80;87.60
24326;DHT22;12448;45.532;5.290;2023-03-01T05:23:51;0.70;87.40
24326;DHT22;12448;45.532;5.290;2023-03-01T05:26:19;0.70;88.30
24326;DHT22;12448;45.532;5.290;2023-03-01T05:28:47;0.70;87.70
24326;DHT22;12448;45.532;5.290;2023-03-01T05:31:13;0.70;87.80
24326;DHT22;12448;45.532;5.290;2023-03-01T05:33:40;0.70;87.90
24326;DHT22;12448;45.532;5.290;2023-03-01T05:36:07;0.90;88.00
24326;DHT22;12448;45.532;5.290;2023-03-01T05:38:35;0.70;88.00
24326;DHT22;12448;45.532;5.290;2023-03-01T05:41:01;0.60;88.00
24326;DHT22;12448;45.532;5.290;2023-03-01T05:43:30;0.60;88.00
24326;DHT22;12448;45.532;5.290;2023-03-01T05:45:57;0.60;88.20
24326;DHT22;12448;45.532;5.290;2023-03-01T05:48:23;0.70;88.10
24326;DHT22;12448;45.532;5.290;2023-03-01T05:50:48;0.60;88.20
24326;DHT22;12448;45.532;5.290;2023-03-01T05:53:19;0.60;88.40
24326;DHT22;12448;45.532;5.290;2023-03-01T05:55:46;0.50;88.20
24326;DHT22;12448;45.532;5.290;2023-03-01T05:58:19;0.40;88.70
24326;DHT22;12448;45.532;5.290;2023-03-01T06:00:46;0.40;88.60
24326;DHT22;12448;45.532;5.290;2023-03-01T06:03:14;0.40;88.50
24326;DHT22;12448;45.532;5.290;2023-03-01T06:05:40;0.40;88.90
24326;DHT22;12448;45.532;5.290;2023-03-01T06:08:06;0.40;89.30
24326;DHT22;12448;45.532;5.290;2023-03-01T06:10:32;0.50;89.30
24326;DHT22;12448;45.532;5.290;2023-03-01T06:12:58;0.50;89.00
24326;DHT22;12448;45.532;5.290;2023-03-01T06:15:25;0.50;88.80
24326;DHT22;12448;45.532;5.290;2023-03-01T06:17:51;0.50;88.30
24326;DHT22;12448;45.532;5.290;2023-03-01T06:20:19;0.50;88.50
24326;DHT22;12448;45.532;5.290;2023-03-01T06:22:46;0.50;88.60
24326;DHT22;12448;45.532;5.290;2023-03-01T06:25:15;0.40;88.60
24326;DHT22;12448;45.532;5.290;2023-03-01T06:27:41;0.40;88.80
24326;DHT22;12448;45.532;5.290;2023-03-01T06:30:09;0.40;88.80
24326;DHT22;12448;45.532;5.290;2023-03-01T06:32:36;0.50;88.70
24326;DHT22;12448;45.532;5.290;2023-03-01T06:35:03;0.50;88.60
24326;DHT22;12448;45.532;5.290;2023-03-01T06:37:28;0.60;88.30
24326;DHT22;12448;45.532;5.290;2023-03-01T06:39:54;0.60;88.30
24326;DHT22;12448;45.532;5.290;2023-03-01T06:42:20;0.40;88.10
24326;DHT22;12448;45.532;5.290;2023-03-01T06:44:45;0.40;88.40
24326;DHT22;12448;45.532;5.290;2023-03-01T06:47:11;0.30;89.10
24326;DHT22;12448;45.532;5.290;2023-03-01T06:49:37;0.20;89.70
24326;DHT22;12448;45.532;5.290;2023-03-01T06:52:03;0.10;89.70
24326;DHT22;12448;45.532;5.290;2023-03-01T06:54:28;0.00;89.80
24326;DHT22;12448;45.532;5.290;2023-03-01T06:56:54;0.10;90.00
24326;DHT22;12448;45.532;5.290;2023-03-01T06:59:20;0.40;90.10
24326;DHT22;12448;45.532;5.290;2023-03-01T07:01:45;0.30;89.80
24326;DHT22;12448;45.532;5.290;2023-03-01T07:04:13;0.30;89.50
24326;DHT22;12448;45.532;5.290;2023-03-01T07:06:38;0.30;89.40
24326;DHT22;12448;45.532;5.290;2023-03-01T07:09:04;0.30;89.40
24326;DHT22;12448;45.532;5.290;2023-03-01T07:11:30;0.30;89.40
24326;DHT22;12448;45.532;5.290;2023-03-01T07:13:55;0.20;89.40
24326;DHT22;12448;45.532;5.290;2023-03-01T07:16:21;0.20;89.50
24326;DHT22;12448;45.532;5.290;2023-03-01T07:18:47;0.30;89.60
24326;DHT22;12448;45.532;5.290;2023-03-01T07:21:14;0.30;89.40
24326;DHT22;12448;45.532;5.290;2023-03-01T07:23:40;0.30;89.30
24326;DHT22;12448;45.532;5.290;2023-03-01T07:26:06;0.40;89.20
24326;DHT22;12448;45.532;5.290;2023-03-01T07:28:32;0.20;89.20
24326;DHT22;12448;45.532;5.290;2023-03-01T07:31:07;0.00;89.80
24326;DHT22;12448;45.532;5.290;2023-03-01T07:33:33;0.10;90.00
24326;DHT22;12448;45.532;5.290;2023-03-01T07:36:01;0.20;90.00
24326;DHT22;12448;45.532;5.290;2023-03-01T07:38:28;0.30;89.90
24326;DHT22;12448;45.532;5.290;2023-03-01T07:41:02;0.50;89.80
24326;DHT22;12448;45.532;5.290;2023-03-01T07:43:29;0.50;89.00
24326;DHT22;12448;45.532;5.290;2023-03-01T07:45:58;0.50;88.90
24326;DHT22;12448;45.532;5.290;2023-03-01T07:48:24;0.60;88.90
24326;DHT22;12448;45.532;5.290;2023-03-01T07:50:49;0.60;88.90
24326;DHT22;12448;45.532;5.290;2023-03-01T07:53:15;0.60;88.60
24326;DHT22;12448;45.532;5.290;2023-03-01T07:55:40;0.50;88.60
24326;DHT22;12448;45.532;5.290;2023-03-01T07:58:06;0.40;88.90
24326;DHT22;12448;45.532;5.290;2023-03-01T08:00:32;0.40;89.20
24326;DHT22;12448;45.532;5.290;2023-03-01T08:03:01;0.40;89.50
24326;DHT22;12448;45.532;5.290;2023-03-01T08:05:28;0.30;89.50
24326;DHT22;12448;45.532;5.290;2023-03-01T08:07:54;0.40;89.70
24326;DHT22;12448;45.532;5.290;2023-03-01T08:10:20;0.60;89.60
24326;DHT22;12448;45.532;5.290;2023-03-01T08:12:45;0.60;89.30
24326;DHT22;12448;45.532;5.290;2023-03-01T08:15:11;0.60;88.80
24326;DHT22;12448;45.532;5.290;2023-03-01T08:17:37;0.50;88.60
24326;DHT22;12448;45.532;5.290;2023-03-01T08:20:03;0.30;88.60
24326;DHT22;12448;45.532;5.290;2023-03-01T08:22:31;0.30;89.80
24326;DHT22;12448;45.532;5.290;2023-03-01T08:24:57;0.30;89.50
24326;DHT22;12448;45.532;5.290;2023-03-01T08:27:22;0.30;89.80
24326;DHT22;12448;45.532;5.290;2023-03-01T08:29:48;0.30;89.80
24326;DHT22;12448;45.532;5.290;2023-03-01T08:32:13;0.30;89.90
24326;DHT22;12448;45.532;5.290;2023-03-01T08:34:39;0.30;89.90
24326;DHT22;12448;45.532;5.290;2023-03-01T08:37:05;0.40;90.00
24326;DHT22;12448;45.532;5.290;2023-03-01T08:39:30;0.50;89.80
24326;DHT22;12448;45.532;5.290;2023-03-01T08:41:57;0.50;89.60
24326;DHT22;12448;45.532;5.290;2023-03-01T08:44:23;0.50;89.50
24326;DHT22;12448;45.532;5.290;2023-03-01T08:46:50;0.40;89.40
24326;DHT22;12448;45.532;5.290;2023-03-01T08:49:18;0.50;89.60
24326;DHT22;12448;45.532;5.290;2023-03-01T08:51:45;0.80;89.60
24326;DHT22;12448;45.532;5.290;2023-03-01T08:54:13;0.50;89.60
24326;DHT22;12448;45.532;5.290;2023-03-01T08:56:40;0.40;89.40
24326;DHT22;12448;45.532;5.290;2023-03-01T08:59:07;0.40;89.40
24326;DHT22;12448;45.532;5.290;2023-03-01T09:01:33;0.50;89.40
24326;DHT22;12448;45.532;5.290;2023-03-01T09:03:59;0.50;89.50
24326;DHT22;12448;45.532;5.290;2023-03-01T09:06:25;0.60;89.40
24326;DHT22;12448;45.532;5.290;2023-03-01T09:08:50;0.60;90.00
24326;DHT22;12448;45.532;5.290;2023-03-01T09:11:19;0.70;89.10
24326;DHT22;12448;45.532;5.290;2023-03-01T09:13:46;0.70;89.00
24326;DHT22;12448;45.532;5.290;2023-03-01T09:16:15;0.70;88.70
24326;DHT22;12448;45.532;5.290;2023-03-01T09:18:41;0.60;88.90
24326;DHT22;12448;45.532;5.290;2023-03-01T09:23:40;0.50;89.30
24326;DHT22;12448;45.532;5.290;2023-03-01T09:26:07;0.60;89.30
24326;DHT22;12448;45.532;5.290;2023-03-01T09:28:34;0.50;89.40
24326;DHT22;12448;45.532;5.290;2023-03-01T09:31:01;0.60;89.60
24326;DHT22;12448;45.532;5.290;2023-03-01T09:33:28;0.60;89.60
24326;DHT22;12448;45.532;5.290;2023-03-01T09:35:59;0.70;89.50
24326;DHT22;12448;45.532;5.290;2023-03-01T09:38:25;0.90;89.50
24326;DHT22;12448;45.532;5.290;2023-03-01T09:40:51;0.80;89.40
24326;DHT22;12448;45.532;5.290;2023-03-01T09:43:42;1.00;89.20
24326;DHT22;12448;45.532;5.290;2023-03-01T09:46:12;1.00;88.70
24326;DHT22;12448;45.532;5.290;2023-03-01T09:48:46;1.10;88.60
24326;DHT22;12448;45.532;5.290;2023-03-01T09:51:35;1.20;88.30
24326;DHT22;12448;45.532;5.290;2023-03-01T09:54:04;1.20;88.00
24326;DHT22;12448;45.532;5.290;2023-03-01T09:56:36;1.10;88.20
24326;DHT22;12448;45.532;5.290;2023-03-01T10:04:49;1.10;88.10
24326;DHT22;12448;45.532;5.290;2023-03-01T10:07:47;1.10;88.00
24326;DHT22;12448;45.532;5.290;2023-03-01T10:10:33;1.10;88.00
24326;DHT22;12448;45.532;5.290;2023-03-01T10:13:13;1.20;88.40
24326;DHT22;12448;45.532;5.290;2023-03-01T10:15:53;1.20;88.20
24326;DHT22;12448;45.532;5.290;2023-03-01T10:18:26;1.30;88.40
24326;DHT22;12448;45.532;5.290;2023-03-01T10:23:23;1.20;87.90
24326;DHT22;12448;45.532;5.290;2023-03-01T10:28:52;1.10;87.80
24326;DHT22;12448;45.532;5.290;2023-03-01T10:31:23;1.10;88.00
24326;DHT22;12448;45.532;5.290;2023-03-01T10:33:53;1.10;88.10
24326;DHT22;12448;45.532;5.290;2023-03-01T10:36:24;1.20;88.50
24326;DHT22;12448;45.532;5.290;2023-03-01T10:38:56;1.30;88.50
24326;DHT22;12448;45.532;5.290;2023-03-01T10:41:25;1.30;88.30
24326;DHT22;12448;45.532;5.290;2023-03-01T10:43:54;1.30;88.20
24326;DHT22;12448;45.532;5.290;2023-03-01T10:51:43;1.40;88.20
24326;DHT22;12448;45.532;5.290;2023-03-01T10:54:29;1.40;88.20
24326;DHT22;12448;45.532;5.290;2023-03-01T10:57:00;1.40;87.90
24326;DHT22;12448;45.532;5.290;2023-03-01T11:02:45;1.40;88.10
24326;DHT22;12448;45.532;5.290;2023-03-01T11:05:23;1.40;87.80
24326;DHT22;12448;45.532;5.290;2023-03-01T11:07:54;1.50;87.90
24326;DHT22;12448;45.532;5.290;2023-03-01T11:10:30;1.50;87.80
24326;DHT22;12448;45.532;5.290;2023-03-01T11:13:18;1.40;87.70
24326;DHT22;12448;45.532;5.290;2023-03-01T11:16:02;1.60;88.10
24326;DHT22;12448;45.532;5.290;2023-03-01T11:18:30;1.60;87.90
24326;DHT22;12448;45.532;5.290;2023-03-01T11:20:58;1.70;87.50
24326;DHT22;12448;45.532;5.290;2023-03-01T11:23:24;1.70;87.50
24326;DHT22;12448;45.532;5.290;2023-03-01T11:26:00;1.80;87.30
24326;DHT22;12448;45.532;5.290;2023-03-01T11:28:29;1.90;87.40
24326;DHT22;12448;45.532;5.290;2023-03-01T11:31:02;1.90;87.20
24326;DHT22;12448;45.532;5.290;2023-03-01T11:33:43;2.00;86.70
24326;DHT22;12448;45.532;5.290;2023-03-01T11:41:49;2.00;86.80
24326;DHT22;12448;45.532;5.290;2023-03-01T11:44:24;2.00;86.60
24326;DHT22;12448;45.532;5.290;2023-03-01T12:06:29;2.10;86.40
24326;DHT22;12448;45.532;5.290;2023-03-01T12:11:59;2.20;86.70
24326;DHT22;12448;45.532;5.290;2023-03-01T12:22:46;2.30;85.70
24326;DHT22;12448;45.532;5.290;2023-03-01T12:38:50;2.40;85.80
24326;DHT22;12448;45.532;5.290;2023-03-01T12:47:12;2.50;85.80
24326;DHT22;12448;45.532;5.290;2023-03-01T12:49:57;2.60;86.10
24326;DHT22;12448;45.532;5.290;2023-03-01T12:52:47;2.70;86.00
24326;DHT22;12448;45.532;5.290;2023-03-01T12:55:26;2.70;85.70
24326;DHT22;12448;45.532;5.290;2023-03-01T12:58:12;2.80;85.50
24326;DHT22;12448;45.532;5.290;2023-03-01T13:01:03;2.80;85.40
24326;DHT22;12448;45.532;5.290;2023-03-01T13:06:17;2.80;85.30
24326;DHT22;12448;45.532;5.290;2023-03-01T13:11:23;2.80;84.80
24326;DHT22;12448;45.532;5.290;2023-03-01T13:13:49;2.80;84.80
24326;DHT22;12448;45.532;5.290;2023-03-01T13:21:48;2.80;84.90
24326;DHT22;12448;45.532;5.290;2023-03-01T13:24:41;2.80;85.00
24326;DHT22;12448;45.532;5.290;2023-03-01T13:29:55;2.70;85.10
24326;DHT22;12448;45.532;5.290;2023-03-01T13:32:22;2.60;85.10
24326;DHT22;12448;45.532;5.290;2023-03-01T13:34:54;2.60;85.20
24326;DHT22;12448;45.532;5.290;2023-03-01T13:37:25;2.50;85.50
24326;DHT22;12448;45.532;5.290;2023-03-01T13:39:52;2.50;85.80
24326;DHT22;12448;45.532;5.290;2023-03-01T13:42:37;2.60;86.00
24326;DHT22;12448;45.532;5.290;2023-03-01T13:45:23;2.60;86.00
24326;DHT22;12448;45.532;5.290;2023-03-01T13:47:58;2.60;85.90
24326;DHT22;12448;45.532;5.290;2023-03-01T13:50:27;2.70;85.80
24326;DHT22;12448;45.532;5.290;2023-03-01T13:53:05;2.70;85.70
24326;DHT22;12448;45.532;5.290;2023-03-01T13:58:03;2.60;85.80
24326;DHT22;12448;45.532;5.290;2023-03-01T14:00:40;2.60;86.20
24326;DHT22;12448;45.532;5.290;2023-03-01T14:05:36;2.50;86.40
24326;DHT22;12448;45.532;5.290;2023-03-01T14:08:17;2.60;86.30
24326;DHT22;12448;45.532;5.290;2023-03-01T14:18:50;3.20;86.70
24326;DHT22;12448;45.532;5.290;2023-03-01T14:21:23;2.60;86.30
24326;DHT22;12448;45.532;5.290;2023-03-01T14:23:51;2.70;86.40
24326;DHT22;12448;45.532;5.290;2023-03-01T14:26:22;2.60;86.20
24326;DHT22;12448;45.532;5.290;2023-03-01T14:28:48;2.70;86.10
24326;DHT22;12448;45.532;5.290;2023-03-01T14:33:59;2.80;86.30
24326;DHT22;12448;45.532;5.290;2023-03-01T14:36:30;2.90;86.40
24326;DHT22;12448;45.532;5.290;2023-03-01T14:38:56;2.90;86.00
24326;DHT22;12448;45.532;5.290;2023-03-01T14:41:27;2.90;86.30
24326;DHT22;12448;45.532;5.290;2023-03-01T14:43:57;2.90;86.10
24326;DHT22;12448;45.532;5.290;2023-03-01T14:46:33;3.20;86.20
24326;DHT22;12448;45.532;5.290;2023-03-01T14:49:17;3.00;86.40
24326;DHT22;12448;45.532;5.290;2023-03-01T14:51:51;3.00;86.00
24326;DHT22;12448;45.532;5.290;2023-03-01T14:56:51;2.90;85.70
24326;DHT22;12448;45.532;5.290;2023-03-01T14:59:23;3.00;86.00
24326;DHT22;12448;45.532;5.290;2023-03-01T15:01:51;3.00;86.20
24326;DHT22;12448;45.532;5.290;2023-03-01T15:04:19;3.00;86.20
24326;DHT22;12448;45.532;5.290;2023-03-01T15:06:49;3.00;86.10
24326;DHT22;12448;45.532;5.290;2023-03-01T15:09:16;3.00;85.90
24326;DHT22;12448;45.532;5.290;2023-03-01T15:11:43;3.00;86.10
24326;DHT22;12448;45.532;5.290;2023-03-01T15:14:26;3.00;86.40
24326;DHT22;12448;45.532;5.290;2023-03-01T15:16:53;3.10;86.10
24326;DHT22;12448;45.532;5.290;2023-03-01T15:19:19;3.10;86.20
24326;DHT22;12448;45.532;5.290;2023-03-01T15:21:49;3.00;86.10
24326;DHT22;12448;45.532;5.290;2023-03-01T15:24:23;3.00;86.20
24326;DHT22;12448;45.532;5.290;2023-03-01T15:26:51;3.10;86.50
24326;DHT22;12448;45.532;5.290;2023-03-01T15:29:22;3.10;86.50
24326;DHT22;12448;45.532;5.290;2023-03-01T15:32:03;3.10;86.60
24326;DHT22;12448;45.532;5.290;2023-03-01T15:34:34;3.10;86.10
24326;DHT22;12448;45.532;5.290;2023-03-01T15:37:03;3.10;86.20
24326;DHT22;12448;45.532;5.290;2023-03-01T15:41:56;3.00;86.00
24326;DHT22;12448;45.532;5.290;2023-03-01T15:44:34;3.00;86.00
24326;DHT22;12448;45.532;5.290;2023-03-01T15:47:00;3.00;86.00
24326;DHT22;12448;45.532;5.290;2023-03-01T15:49:39;3.00;86.00
24326;DHT22;12448;45.532;5.290;2023-03-01T15:52:29;3.00;86.10
24326;DHT22;12448;45.532;5.290;2023-03-01T15:55:02;3.00;86.10
24326;DHT22;12448;45.532;5.290;2023-03-01T15:57:29;3.00;86.10
24326;DHT22;12448;45.532;5.290;2023-03-01T15:59:55;3.00;86.10
24326;DHT22;12448;45.532;5.290;2023-03-01T16:02:22;3.00;86.10
24326;DHT22;12448;45.532;5.290;2023-03-01T16:04:50;3.00;86.10
24326;DHT22;12448;45.532;5.290;2023-03-01T16:07:16;3.00;87.00
24326;DHT22;12448;45.532;5.290;2023-03-01T16:09:42;3.10;87.10
24326;DHT22;12448;45.532;5.290;2023-03-01T16:12:14;3.00;86.20
24326;DHT22;12448;45.532;5.290;2023-03-01T16:14:39;3.00;86.10
24326;DHT22;12448;45.532;5.290;2023-03-01T16:17:05;3.00;86.20
24326;DHT22;12448;45.532;5.290;2023-03-01T16:19:31;3.00;87.00
24326;DHT22;12448;45.532;5.290;2023-03-01T16:21:57;3.10;86.50
24326;DHT22;12448;45.532;5.290;2023-03-01T16:24:22;3.00;86.30
24326;DHT22;12448;45.532;5.290;2023-03-01T16:26:48;3.00;86.20
24326;DHT22;12448;45.532;5.290;2023-03-01T16:29:14;3.10;86.60
24326;DHT22;12448;45.532;5.290;2023-03-01T16:31:41;3.10;86.60
24326;DHT22;12448;45.532;5.290;2023-03-01T16:34:06;3.10;86.70
24326;DHT22;12448;45.532;5.290;2023-03-01T16:36:32;3.10;86.70
24326;DHT22;12448;45.532;5.290;2023-03-01T16:38:59;3.10;86.70
24326;DHT22;12448;45.532;5.290;2023-03-01T16:41:27;3.00;86.50
24326;DHT22;12448;45.532;5.290;2023-03-01T16:43:52;3.00;86.50
24326;DHT22;12448;45.532;5.290;2023-03-01T16:46:24;3.10;86.60
24326;DHT22;12448;45.532;5.290;2023-03-01T16:48:50;3.10;86.60
24326;DHT22;12448;45.532;5.290;2023-03-01T16:51:16;3.10;86.60
24326;DHT22;12448;45.532;5.290;2023-03-01T16:53:42;3.10;86.70
24326;DHT22;12448;45.532;5.290;2023-03-01T16:56:10;3.10;86.90
24326;DHT22;12448;45.532;5.290;2023-03-01T16:58:37;3.10;86.80
24326;DHT22;12448;45.532;5.290;2023-03-01T17:01:12;3.20;86.70
24326;DHT22;12448;45.532;5.290;2023-03-01T17:03:39;3.20;86.70
24326;DHT22;12448;45.532;5.290;2023-03-01T17:06:10;3.20;86.60
24326;DHT22;12448;45.532;5.290;2023-03-01T17:08:36;3.20;86.70
24326;DHT22;12448;45.532;5.290;2023-03-01T17:11:07;3.20;87.30
24326;DHT22;12448;45.532;5.290;2023-03-01T17:13:34;3.20;86.90
24326;DHT22;12448;45.532;5.290;2023-03-01T17:16:01;3.20;86.80
24326;DHT22;12448;45.532;5.290;2023-03-01T17:18:27;3.20;86.90
24326;DHT22;12448;45.532;5.290;2023-03-01T17:20:53;3.20;87.00
24326;DHT22;12448;45.532;5.290;2023-03-01T17:23:19;3.20;86.90
24326;DHT22;12448;45.532;5.290;2023-03-01T17:25:45;3.20;86.90
24326;DHT22;12448;45.532;5.290;2023-03-01T17:28:12;3.20;86.90
24326;DHT22;12448;45.532;5.290;2023-03-01T17:30:41;3.20;86.90
24326;DHT22;12448;45.532;5.290;2023-03-01T17:33:07;3.20;86.90
24326;DHT22;12448;45.532;5.290;2023-03-01T17:35:33;3.20;87.00
24326;DHT22;12448;45.532;5.290;2023-03-01T17:38:03;3.20;87.00
24326;DHT22;12448;45.532;5.290;2023-03-01T17:40:29;3.20;87.00
24326;DHT22;12448;45.532;5.290;2023-03-01T17:42:55;3.20;87.00
24326;DHT22;12448;45.532;5.290;2023-03-01T17:45:21;3.30;87.10
24326;DHT22;12448;45.532;5.290;2023-03-01T17:47:47;3.20;87.00
24326;DHT22;12448;45.532;5.290;2023-03-01T17:50:13;3.30;87.20
24326;DHT22;12448;45.532;5.290;2023-03-01T17:52:38;3.30;87.10
24326;DHT22;12448;45.532;5.290;2023-03-01T17:55:06;3.20;87.10
24326;DHT22;12448;45.532;5.290;2023-03-01T17:57:32;3.10;87.10